Time;durP1;ratioP1;P1;durP2;ratioP2;P2;SDS_P1;SDS_P2;PMS_P1;PMS_P2;Temp;Humidity;BMP_temperature;BMP_pressure;BME280_temperature;BME280_humidity;BME280_pressure;Samples;Min_cycle;Max_cycle;Signal;HPM_P1;HPM_P2
2022/01/03 00:00:09;;;;;;;4.20;1.58;;;10.60;99.90;;;;;;4951953;29;20235;-64
2022/01/03 00:02:38;;;;;;;4.57;1.80;;;10.50;99.90;;;;;;4935084;28;20223;-64
2022/01/03 00:05:06;;;;;;;5.00;1.80;;;10.50;99.90;;;;;;4936440;29;20254;-64
2022/01/03 00:07:37;;;;;;;6.13;1.65;;;10.50;99.90;;;;;;4939650;29;20228;-64
2022/01/03 00:10:08;;;;;;;3.40;1.45;;;10.50;99.90;;;;;;4939676;29;20319;-64
2022/01/03 00:12:37;;;;;;;5.07;1.63;;;10.50;99.90;;;;;;4939828;29;20238;-64
2022/01/03 00:15:06;;;;;;;5.57;1.83;;;10.50;99.90;;;;;;4937950;29;20299;-64
2022/01/03 00:17:34;;;;;;;2.25;1.30;;;10.50;99.90;;;;;;4942080;29;20203;-64
2022/01/03 00:20:03;;;;;;;4.70;1.55;;;10.50;99.90;;;;;;4939154;29;20291;-64
2022/01/03 00:22:36;;;;;;;4.20;1.60;;;10.60;99.90;;;;;;4936670;29;20235;-65
2022/01/03 00:25:15;;;;;;;2.95;1.20;;;10.60;99.90;;;;;;4936818;29;20214;-64
2022/01/03 00:27:57;;;;;;;1.85;1.20;;;10.60;99.90;;;;;;4936787;29;20211;-64
2022/01/03 00:30:26;;;;;;;4.32;1.60;;;10.60;99.90;;;;;;4934988;28;20336;-64
2022/01/03 00:32:54;;;;;;;2.97;1.25;;;10.60;99.90;;;;;;4942978;29;20301;-64
2022/01/03 00:35:22;;;;;;;3.83;1.52;;;10.60;99.90;;;;;;4954688;29;20211;-64
2022/01/03 00:37:51;;;;;;;2.90;1.27;;;10.60;99.90;;;;;;4954727;28;20210;-64
2022/01/03 00:40:21;;;;;;;4.45;1.40;;;10.60;99.90;;;;;;4954241;28;20753;-64
2022/01/03 00:42:50;;;;;;;4.70;1.75;;;10.50;99.90;;;;;;4954459;29;20715;-64
2022/01/03 00:45:18;;;;;;;7.15;2.00;;;10.50;99.90;;;;;;4957450;29;20660;-63
2022/01/03 00:47:47;;;;;;;4.22;1.95;;;10.50;99.90;;;;;;4957941;29;20636;-62
2022/01/03 00:50:18;;;;;;;5.18;1.88;;;10.50;99.90;;;;;;4956970;28;20211;-62
2022/01/03 00:52:47;;;;;;;4.68;1.90;;;10.50;99.90;;;;;;4957051;29;20298;-63
2022/01/03 00:55:14;;;;;;;5.78;1.48;;;10.50;99.90;;;;;;4945830;29;20669;-63
2022/01/03 00:57:55;;;;;;;3.67;1.63;;;10.60;99.90;;;;;;4938179;29;20234;-63
2022/01/03 01:00:23;;;;;;;8.07;2.38;;;10.60;99.90;;;;;;4940099;29;20291;-62
2022/01/03 01:02:57;;;;;;;4.43;1.95;;;10.50;99.90;;;;;;4936480;29;20338;-62
2022/01/03 01:05:26;;;;;;;7.03;2.30;;;10.50;99.90;;;;;;4957236;29;20261;-63
2022/01/03 01:07:56;;;;;;;6.43;2.35;;;10.50;99.90;;;;;;4957037;29;20251;-63
2022/01/03 01:10:28;;;;;;;4.25;1.95;;;10.30;99.90;;;;;;4956683;28;20274;-63
2022/01/03 01:12:58;;;;;;;4.95;1.85;;;10.30;99.90;;;;;;4958317;29;20751;-63
2022/01/03 01:15:28;;;;;;;4.47;1.40;;;10.40;99.90;;;;;;4959506;29;20564;-63
2022/01/03 01:17:57;;;;;;;4.32;1.30;;;10.50;99.90;;;;;;4959350;29;20581;-63
2022/01/03 01:20:26;;;;;;;5.07;2.13;;;10.40;99.90;;;;;;4959233;28;20664;-63
2022/01/03 01:22:55;;;;;;;4.10;1.50;;;10.50;99.90;;;;;;4947284;29;20231;-63
2022/01/03 01:27:45;;;;;;;2.78;1.30;;;10.50;99.90;;;;;;4939341;29;20211;-63
2022/01/03 01:28:16;;;;;;;2.95;1.50;;;10.40;99.90;;;;;;4940421;29;20263;-64
2022/01/03 01:30:44;;;;;;;4.32;1.33;;;10.40;99.90;;;;;;4950900;28;20247;-64
2022/01/03 01:33:15;;;;;;;2.97;0.98;;;10.40;99.90;;;;;;4929686;29;20200;-63
2022/01/03 01:35:46;;;;;;;4.60;1.30;;;10.30;99.90;;;;;;4934797;29;20634;-63
2022/01/03 01:38:16;;;;;;;3.58;1.25;;;10.30;99.90;;;;;;4940180;29;20677;-63
2022/01/03 01:40:48;;;;;;;8.90;1.35;;;10.20;99.90;;;;;;4963594;23;20286;-61
2022/01/03 01:43:20;;;;;;;1.48;1.00;;;10.20;99.90;;;;;;4931582;29;20315;-61
2022/01/03 01:45:49;;;;;;;3.08;1.17;;;10.00;99.90;;;;;;4934715;29;20673;-61
2022/01/03 01:48:18;;;;;;;3.30;1.15;;;10.00;99.90;;;;;;4935032;29;20586;-62
2022/01/03 01:50:51;;;;;;;8.93;1.20;;;10.10;99.90;;;;;;4934696;29;20673;-62
2022/01/03 01:53:24;;;;;;;3.72;1.40;;;10.00;99.90;;;;;;4934855;29;20231;-61
2022/01/03 01:55:55;;;;;;;8.98;2.05;;;10.00;99.90;;;;;;4951173;29;20227;-61
2022/01/03 01:58:29;;;;;;;9.25;1.70;;;9.90;99.90;;;;;;4953412;29;20245;-61
2022/01/03 02:01:00;;;;;;;6.18;1.60;;;9.90;99.90;;;;;;4934193;28;20257;-61
2022/01/03 02:03:39;;;;;;;7.68;1.25;;;9.80;99.90;;;;;;4943927;29;20212;-61
2022/01/03 02:06:25;;;;;;;3.85;1.02;;;9.90;99.90;;;;;;4953172;29;20340;-61
2022/01/03 02:09:03;;;;;;;2.28;1.00;;;9.90;99.90;;;;;;4953343;29;20226;-61
2022/01/03 02:11:49;;;;;;;5.38;1.30;;;10.00;99.90;;;;;;4952709;28;20802;-61
2022/01/03 02:14:19;;;;;;;6.95;1.23;;;9.90;99.90;;;;;;4952775;29;20199;-61
2022/01/03 02:16:49;;;;;;;4.22;1.40;;;9.80;99.90;;;;;;4953273;28;20203;-61
2022/01/03 02:19:19;;;;;;;6.15;1.58;;;9.90;99.90;;;;;;4952996;29;20210;-61
2022/01/03 02:21:49;;;;;;;4.72;1.25;;;9.90;99.90;;;;;;4952952;28;20227;-61
2022/01/03 02:24:17;;;;;;;3.88;1.33;;;9.80;99.90;;;;;;4952745;29;20262;-62
2022/01/03 02:26:44;;;;;;;5.93;1.40;;;9.80;99.90;;;;;;4951665;29;20238;-62
2022/01/03 02:29:12;;;;;;;7.53;1.98;;;9.70;99.90;;;;;;4941118;29;20238;-62
2022/01/03 02:31:40;;;;;;;9.48;1.80;;;9.70;99.90;;;;;;4933854;29;20251;-62
2022/01/03 02:34:08;;;;;;;5.18;1.17;;;9.70;99.90;;;;;;4932953;29;20204;-62
2022/01/03 02:36:36;;;;;;;6.07;1.48;;;9.80;99.90;;;;;;4935874;28;20656;-61
2022/01/03 02:39:06;;;;;;;5.03;1.50;;;9.80;99.90;;;;;;4938402;29;20700;-61
2022/01/03 02:41:34;;;;;;;5.18;1.58;;;9.70;99.90;;;;;;4937696;29;20788;-62
2022/01/03 02:44:02;;;;;;;10.63;2.45;;;9.60;99.90;;;;;;4938043;29;20223;-62
2022/01/03 02:46:30;;;;;;;4.78;1.80;;;9.70;99.90;;;;;;4938195;29;20295;-62
2022/01/03 02:48:57;;;;;;;4.20;1.42;;;9.60;99.90;;;;;;4938340;29;20207;-62
2022/01/03 02:51:25;;;;;;;5.90;1.70;;;9.70;99.90;;;;;;4937992;29;20248;-63
2022/01/03 02:53:53;;;;;;;7.95;1.45;;;9.70;99.90;;;;;;4937783;29;20303;-62
2022/01/03 02:56:22;;;;;;;7.05;2.10;;;9.70;99.90;;;;;;4952855;29;20305;-62
2022/01/03 02:58:50;;;;;;;10.52;1.95;;;9.70;99.90;;;;;;4956510;29;20303;-62
2022/01/03 03:01:18;;;;;;;4.68;1.05;;;9.60;99.90;;;;;;4937291;29;20766;-62
2022/01/03 03:03:50;;;;;;;5.55;1.40;;;9.50;99.90;;;;;;4951754;29;20242;-62
2022/01/03 03:06:18;;;;;;;7.85;2.20;;;9.40;99.90;;;;;;4956293;29;20680;-62
2022/01/03 03:08:46;;;;;;;5.22;2.00;;;9.40;99.90;;;;;;4956325;29;20215;-62
2022/01/03 03:11:14;;;;;;;5.10;1.40;;;9.40;99.90;;;;;;4956253;28;20223;-62
2022/01/03 03:13:43;;;;;;;4.05;1.40;;;9.20;99.90;;;;;;4955970;29;20239;-62
2022/01/03 03:16:11;;;;;;;4.00;1.20;;;9.30;99.90;;;;;;4956144;29;20203;-61
2022/01/03 03:18:44;;;;;;;6.25;1.50;;;9.20;99.90;;;;;;4955878;29;20222;-62
2022/01/03 03:21:12;;;;;;;7.47;2.13;;;9.30;99.90;;;;;;4955860;28;20298;-62
2022/01/03 03:23:40;;;;;;;6.55;1.75;;;9.20;99.90;;;;;;4955564;29;20722;-62
2022/01/03 03:26:09;;;;;;;12.57;1.70;;;9.10;99.90;;;;;;4955971;29;20243;-62
2022/01/03 03:28:37;;;;;;;4.55;1.63;;;9.10;99.90;;;;;;4955966;29;20262;-62
2022/01/03 03:31:07;;;;;;;7.30;2.60;;;9.00;99.90;;;;;;4944615;29;20252;-61
2022/01/03 03:33:35;;;;;;;5.10;2.00;;;9.00;99.90;;;;;;4938025;29;20207;-62
2022/01/03 03:36:03;;;;;;;4.00;1.52;;;8.90;99.90;;;;;;4942459;29;20672;-62
2022/01/03 03:38:31;;;;;;;7.28;1.30;;;9.00;99.90;;;;;;4955852;29;20203;-62
2022/01/03 03:41:01;;;;;;;5.13;2.20;;;9.00;99.90;;;;;;4955248;28;20246;-62
2022/01/03 03:43:30;;;;;;;3.10;1.35;;;9.00;99.90;;;;;;4955560;29;20727;-61
2022/01/03 03:45:58;;;;;;;3.63;1.30;;;9.00;99.90;;;;;;4955618;29;20234;-62
2022/01/03 03:48:27;;;;;;;12.00;2.55;;;9.10;99.90;;;;;;4954575;28;20235;-62
2022/01/03 03:50:55;;;;;;;7.68;2.00;;;9.00;99.90;;;;;;4955204;28;20704;-61
2022/01/03 03:53:26;;;;;;;4.40;1.35;;;9.00;99.90;;;;;;4936820;29;20705;-62
2022/01/03 03:55:53;;;;;;;9.45;2.53;;;9.10;99.90;;;;;;4949347;29;20215;-62
2022/01/03 03:58:21;;;;;;;4.13;1.50;;;9.20;99.90;;;;;;4931029;29;20697;-62
2022/01/03 04:00:49;;;;;;;9.63;1.65;;;9.20;99.90;;;;;;4931747;29;20242;-62
2022/01/03 04:03:38;;;;;;;10.07;1.75;;;9.30;99.90;;;;;;4939141;29;20274;-62
2022/01/03 04:06:06;;;;;;;6.97;1.60;;;9.40;99.90;;;;;;4955188;29;20226;-62
2022/01/03 04:08:33;;;;;;;8.55;1.65;;;9.30;99.90;;;;;;4955245;29;20846;-62
2022/01/03 04:11:01;;;;;;;9.35;2.10;;;9.40;99.90;;;;;;4954920;29;20247;-62
2022/01/03 04:13:29;;;;;;;3.47;1.35;;;9.40;99.90;;;;;;4954984;29;20636;-61
2022/01/03 04:15:57;;;;;;;4.07;1.20;;;9.40;99.90;;;;;;4955175;29;20242;-61
2022/01/03 04:18:25;;;;;;;5.88;1.20;;;9.40;99.90;;;;;;4955248;29;20660;-62
2022/01/03 04:20:54;;;;;;;5.10;1.80;;;9.50;99.90;;;;;;4954770;28;20269;-62
2022/01/03 04:23:22;;;;;;;2.50;0.90;;;9.40;99.90;;;;;;4954529;29;20246;-61
2022/01/03 04:25:51;;;;;;;3.08;0.98;;;9.50;99.90;;;;;;4954893;29;20310;-62
2022/01/03 04:28:20;;;;;;;5.80;1.10;;;9.50;99.90;;;;;;4954931;29;20274;-61
2022/01/03 04:30:48;;;;;;;1.65;1.20;;;9.50;99.90;;;;;;4937494;29;20595;-61
2022/01/03 04:33:16;;;;;;;3.80;0.90;;;9.40;99.90;;;;;;4941190;29;20241;-62
2022/01/03 04:35:44;;;;;;;1.90;0.90;;;9.40;99.90;;;;;;4954696;29;20262;-62
2022/01/03 04:38:13;;;;;;;1.52;0.70;;;9.40;99.90;;;;;;4954856;29;20235;-62
2022/01/03 04:40:41;;;;;;;6.93;1.20;;;9.30;99.90;;;;;;4934781;29;20246;-61
2022/01/03 04:43:09;;;;;;;3.05;1.20;;;9.30;99.90;;;;;;4934118;29;20212;-62
2022/01/03 04:45:37;;;;;;;5.70;1.40;;;9.20;99.90;;;;;;4936210;29;20255;-63
2022/01/03 04:48:06;;;;;;;3.97;0.70;;;9.10;99.90;;;;;;4936129;29;20242;-63
2022/01/03 04:50:34;;;;;;;1.23;0.85;;;9.00;99.90;;;;;;4935851;29;20204;-61
2022/01/03 04:53:02;;;;;;;3.28;1.00;;;9.00;99.90;;;;;;4935681;29;20306;-61
2022/01/03 04:55:31;;;;;;;1.67;0.80;;;8.90;99.90;;;;;;4946436;29;20234;-60
2022/01/03 04:57:59;;;;;;;2.85;0.88;;;8.90;99.90;;;;;;4954438;29;20290;-61
2022/01/03 05:00:27;;;;;;;4.45;1.10;;;8.90;99.90;;;;;;4948446;28;20227;-61
2022/01/03 05:02:59;;;;;;;1.25;1.15;;;8.90;99.90;;;;;;4933176;28;20232;-61
2022/01/03 05:05:27;;;;;;;5.65;1.67;;;8.80;99.90;;;;;;4935757;29;20231;-61
2022/01/03 05:07:55;;;;;;;1.98;0.80;;;8.70;99.90;;;;;;4935770;29;20749;-62
2022/01/03 05:10:23;;;;;;;6.63;1.10;;;8.60;99.90;;;;;;4935753;29;20203;-62
2022/01/03 05:12:52;;;;;;;4.82;1.10;;;8.50;99.90;;;;;;4935375;29;20313;-61
2022/01/03 05:15:20;;;;;;;3.88;1.17;;;8.50;99.90;;;;;;4933846;29;20720;-61
2022/01/03 05:17:47;;;;;;;2.05;1.20;;;8.40;99.90;;;;;;4932046;29;20631;-61
2022/01/03 05:20:16;;;;;;;6.05;1.42;;;8.50;99.90;;;;;;4943648;29;20211;-61
2022/01/03 05:22:43;;;;;;;3.97;1.25;;;8.50;99.90;;;;;;4935241;29;20267;-61
2022/01/03 05:25:11;;;;;;;6.45;1.60;;;8.60;99.90;;;;;;4935456;29;20251;-61
2022/01/03 05:27:40;;;;;;;2.67;1.13;;;8.70;99.90;;;;;;4935422;29;20219;-61
2022/01/03 05:30:10;;;;;;;1.48;0.90;;;8.70;99.90;;;;;;4935430;29;20303;-61
2022/01/03 05:32:38;;;;;;;3.88;1.00;;;8.80;99.90;;;;;;4940439;29;20257;-62
2022/01/03 05:35:07;;;;;;;5.80;1.88;;;8.80;99.90;;;;;;4953619;29;20286;-61
2022/01/03 05:37:34;;;;;;;5.55;1.70;;;8.80;99.90;;;;;;4953666;29;20286;-62
2022/01/03 05:40:03;;;;;;;6.72;1.63;;;8.70;99.90;;;;;;4953587;29;20230;-63
2022/01/03 05:42:31;;;;;;;4.25;1.52;;;8.70;99.90;;;;;;4952862;28;20274;-62
2022/01/03 05:44:59;;;;;;;4.50;1.98;;;8.80;99.90;;;;;;4936078;28;20224;-61
2022/01/03 05:47:28;;;;;;;4.50;1.33;;;8.70;99.90;;;;;;4936315;29;20267;-64
2022/01/03 05:49:56;;;;;;;3.17;1.30;;;8.70;99.90;;;;;;4928774;29;20236;-62
2022/01/03 05:52:24;;;;;;;3.40;1.10;;;8.70;99.90;;;;;;4928170;29;20809;-62
2022/01/03 05:54:53;;;;;;;3.95;1.20;;;8.70;99.90;;;;;;4928677;29;20239;-62
2022/01/03 05:57:20;;;;;;;4.53;1.13;;;8.70;99.90;;;;;;4928975;29;20291;-62
2022/01/03 05:59:48;;;;;;;5.70;1.40;;;8.70;99.90;;;;;;4928837;29;20235;-62
2022/01/03 06:02:18;;;;;;;1.65;1.00;;;8.70;99.90;;;;;;4928722;29;20314;-62
2022/01/03 06:04:56;;;;;;;3.20;0.90;;;8.70;99.90;;;;;;4934889;29;20729;-60
2022/01/03 06:07:24;;;;;;;9.15;1.52;;;8.70;99.90;;;;;;4934850;29;20699;-62
2022/01/03 06:09:52;;;;;;;6.20;1.05;;;8.70;99.90;;;;;;4948792;29;20780;-62
2022/01/03 06:12:21;;;;;;;2.95;0.85;;;8.70;99.90;;;;;;4952444;28;20321;-62
2022/01/03 06:14:49;;;;;;;3.65;1.35;;;8.70;99.90;;;;;;4945525;29;20566;-61
2022/01/03 06:17:17;;;;;;;2.13;1.10;;;8.70;99.90;;;;;;4929389;29;20211;-62
2022/01/03 06:19:48;;;;;;;3.85;1.30;;;8.70;99.90;;;;;;4934735;29;20292;-61
2022/01/03 06:22:17;;;;;;;6.35;1.70;;;8.70;99.90;;;;;;4934291;29;20259;-61
2022/01/03 06:24:45;;;;;;;5.30;1.20;;;8.70;99.90;;;;;;4934667;29;20238;-62
2022/01/03 06:27:13;;;;;;;4.43;0.95;;;8.60;99.90;;;;;;4934487;29;20685;-61
2022/01/03 06:29:40;;;;;;;4.55;1.35;;;8.60;99.90;;;;;;4934794;29;20259;-61
2022/01/03 06:32:08;;;;;;;2.38;1.10;;;8.60;99.90;;;;;;4933877;29;20743;-61
2022/01/03 06:34:36;;;;;;;5.32;1.40;;;8.50;99.90;;;;;;4948989;29;20231;-63
2022/01/03 06:37:05;;;;;;;2.00;1.77;;;8.50;99.90;;;;;;4952891;29;20227;-61
2022/01/03 06:39:33;;;;;;;6.78;1.33;;;8.50;99.90;;;;;;4952927;29;20711;-61
2022/01/03 06:42:01;;;;;;;6.25;1.60;;;8.50;99.90;;;;;;4943989;28;20315;-61
2022/01/03 06:44:29;;;;;;;3.75;1.20;;;8.50;99.90;;;;;;4927753;29;20204;-62
2022/01/03 06:46:57;;;;;;;5.20;1.45;;;8.50;99.90;;;;;;4930312;29;20216;-61
2022/01/03 06:49:25;;;;;;;5.07;1.58;;;8.50;99.90;;;;;;4938206;29;20541;-61
2022/01/03 06:51:53;;;;;;;9.82;2.38;;;8.50;99.90;;;;;;4939023;28;20251;-62
2022/01/03 06:54:22;;;;;;;3.17;0.98;;;8.50;99.90;;;;;;4949968;29;20234;-61
2022/01/03 06:56:50;;;;;;;14.40;1.73;;;8.50;99.90;;;;;;4947351;28;20288;-62
2022/01/03 06:59:18;;;;;;;3.67;1.70;;;8.60;99.90;;;;;;4943543;29;20724;-62
2022/01/03 07:01:46;;;;;;;7.13;2.00;;;8.50;99.90;;;;;;4952357;28;20270;-62
2022/01/03 07:04:14;;;;;;;2.72;1.45;;;8.60;99.90;;;;;;4952363;29;20651;-64
2022/01/03 07:06:42;;;;;;;4.72;1.83;;;8.50;99.90;;;;;;4932114;29;20314;-62
2022/01/03 07:09:09;;;;;;;5.60;1.80;;;8.50;99.90;;;;;;4934241;29;20302;-62
2022/01/03 07:11:39;;;;;;;5.15;1.88;;;8.50;99.90;;;;;;4934049;29;20256;-62
2022/01/03 07:18:56;;;;;;;6.88;2.30;;;8.50;99.90;;;;;;4929314;29;20220;-62
2022/01/03 07:19:44;;;;;;;5.40;1.52;;;8.60;99.90;;;;;;4934136;29;20628;-61
2022/01/03 07:22:13;;;;;;;7.75;2.47;;;8.70;99.90;;;;;;4933590;29;20280;-62
2022/01/03 07:24:41;;;;;;;6.15;1.45;;;8.70;99.90;;;;;;4936882;29;20290;-62
2022/01/03 07:27:12;;;;;;;7.03;1.92;;;8.90;99.90;;;;;;4932105;29;20257;-62
2022/01/03 07:29:41;;;;;;;3.30;1.20;;;8.80;99.90;;;;;;4928294;29;20274;-61
2022/01/03 07:32:09;;;;;;;4.82;1.52;;;8.90;99.90;;;;;;4925396;29;20283;-61
2022/01/03 07:34:37;;;;;;;5.05;1.33;;;8.90;99.90;;;;;;4935983;29;20665;-62
2022/01/03 07:37:05;;;;;;;6.10;1.45;;;8.80;99.90;;;;;;4940907;29;20195;-62
2022/01/03 07:39:34;;;;;;;3.67;1.50;;;8.80;99.90;;;;;;4955943;29;20249;-61
2022/01/03 07:42:04;;;;;;;2.45;1.27;;;8.70;99.90;;;;;;4944849;29;20585;-62
2022/01/03 07:44:33;;;;;;;6.68;2.25;;;8.70;99.90;;;;;;4941787;29;20609;-62
2022/01/03 07:47:02;;;;;;;5.97;1.80;;;8.80;99.90;;;;;;4932289;29;20650;-62
2022/01/03 07:49:30;;;;;;;3.45;1.60;;;8.80;99.90;;;;;;4947808;29;20258;-62
2022/01/03 07:51:58;;;;;;;2.95;1.30;;;8.80;99.90;;;;;;4955188;28;20255;-63
2022/01/03 07:54:26;;;;;;;7.80;1.75;;;8.80;99.90;;;;;;4943808;29;20204;-62
2022/01/03 07:56:54;;;;;;;7.22;2.20;;;8.80;99.90;;;;;;4936368;29;20263;-62
2022/01/03 07:59:22;;;;;;;3.70;1.40;;;8.90;99.90;;;;;;4943483;29;20668;-64
2022/01/03 08:01:52;;;;;;;3.20;1.65;;;8.80;99.90;;;;;;4955536;28;20371;-62
2022/01/03 08:04:20;;;;;;;5.25;1.98;;;8.90;99.90;;;;;;4936070;29;20205;-62
2022/01/03 08:06:48;;;;;;;4.47;2.10;;;8.90;99.90;;;;;;4930325;29;20680;-63
2022/01/03 08:09:16;;;;;;;5.40;1.90;;;9.50;99.90;;;;;;4935372;29;20295;-63
2022/01/03 08:11:44;;;;;;;4.25;2.42;;;10.10;99.90;;;;;;4934957;29;20311;-62
2022/01/03 08:14:11;;;;;;;14.35;3.72;;;11.10;99.90;;;;;;4931841;29;20290;-64
2022/01/03 08:16:39;;;;;;;5.90;1.95;;;11.80;99.90;;;;;;4931787;29;20227;-65
2022/01/03 08:19:08;;;;;;;5.70;2.13;;;11.90;99.90;;;;;;4936598;29;20205;-64
2022/01/03 08:21:36;;;;;;;5.28;1.63;;;12.40;99.90;;;;;;4949260;28;20306;-63
2022/01/03 08:24:05;;;;;;;3.55;1.98;;;12.70;99.90;;;;;;4933797;29;20212;-64
2022/01/03 08:26:35;;;;;;;6.00;1.33;;;12.70;99.90;;;;;;4933146;29;20258;-64
2022/01/03 08:29:03;;;;;;;4.63;2.25;;;12.20;99.90;;;;;;4926156;29;20752;-64
2022/01/03 08:31:30;;;;;;;7.03;2.30;;;12.20;99.90;;;;;;4936921;29;20250;-64
2022/01/03 08:33:58;;;;;;;2.50;1.55;;;12.50;99.90;;;;;;4939486;29;20583;-64
2022/01/03 08:36:28;;;;;;;5.75;2.28;;;12.70;99.90;;;;;;4928211;29;20212;-65
2022/01/03 08:38:56;;;;;;;4.32;1.42;;;13.00;99.90;;;;;;4937288;29;20203;-65
2022/01/03 08:41:24;;;;;;;4.93;1.88;;;12.70;99.90;;;;;;4948894;28;20341;-65
2022/01/03 08:43:52;;;;;;;3.17;1.60;;;12.50;99.90;;;;;;4943523;29;20250;-64
2022/01/03 08:46:23;;;;;;;6.32;2.03;;;12.00;99.90;;;;;;4920494;29;20802;-63
2022/01/03 08:48:51;;;;;;;5.80;1.80;;;12.00;99.90;;;;;;4933491;29;20625;-63
2022/01/03 08:51:19;;;;;;;4.80;1.80;;;12.10;99.90;;;;;;4930512;29;20326;-64
2022/01/03 08:53:49;;;;;;;5.40;2.25;;;11.80;99.90;;;;;;4930406;29;20211;-64
2022/01/03 08:56:17;;;;;;;5.28;2.28;;;11.40;99.90;;;;;;4920502;29;20319;-64
2022/01/03 08:58:45;;;;;;;4.70;2.10;;;10.90;99.90;;;;;;4930507;29;20223;-64
2022/01/03 09:01:13;;;;;;;6.25;2.05;;;10.60;99.90;;;;;;4933363;29;20283;-63
2022/01/03 09:03:42;;;;;;;11.20;2.00;;;10.20;99.90;;;;;;4924780;29;20295;-64
2022/01/03 09:06:11;;;;;;;9.05;2.42;;;9.80;99.90;;;;;;4920833;29;20218;-64
2022/01/03 09:08:39;;;;;;;4.85;1.90;;;9.80;99.90;;;;;;4936107;29;20217;-64
2022/01/03 09:11:08;;;;;;;10.75;3.58;;;9.60;99.90;;;;;;4937591;28;20306;-64
2022/01/03 09:13:37;;;;;;;6.85;2.00;;;9.50;99.90;;;;;;4944602;29;20287;-64
2022/01/03 09:16:07;;;;;;;5.28;1.95;;;9.50;99.90;;;;;;4922441;29;20211;-63
2022/01/03 09:18:36;;;;;;;8.70;2.80;;;9.50;99.90;;;;;;4930189;29;20288;-64
2022/01/03 09:21:04;;;;;;;13.32;3.15;;;9.50;99.90;;;;;;4948048;28;20662;-64
2022/01/03 09:23:36;;;;;;;11.80;2.92;;;9.50;99.90;;;;;;4948235;29;20210;-63
2022/01/03 09:28:52;;;;;;;13.02;3.10;;;9.50;99.90;;;;;;4928130;29;20317;-64
2022/01/03 09:31:24;;;;;;;11.98;3.53;;;9.50;99.90;;;;;;4927076;29;21053;-64
2022/01/03 09:33:52;;;;;;;13.50;2.58;;;9.50;99.90;;;;;;4923485;29;20993;-64
2022/01/03 09:36:20;;;;;;;14.40;3.45;;;9.60;99.90;;;;;;4929648;29;20260;-64
2022/01/03 09:38:48;;;;;;;6.72;2.83;;;9.60;99.90;;;;;;4938849;29;20242;-64
2022/01/03 09:41:19;;;;;;;13.20;2.70;;;9.60;99.90;;;;;;4947722;28;20815;-64
2022/01/03 09:43:50;;;;;;;10.98;2.95;;;9.70;99.90;;;;;;4943375;29;20220;-63
2022/01/03 09:46:22;;;;;;;7.53;3.38;;;9.70;99.90;;;;;;4926609;29;20283;-62
2022/01/03 09:48:52;;;;;;;8.88;2.80;;;9.70;99.90;;;;;;4932449;29;20279;-63
2022/01/03 09:51:22;;;;;;;10.68;2.92;;;9.80;99.90;;;;;;4929279;29;20219;-63
2022/01/03 09:53:52;;;;;;;10.93;2.95;;;9.80;99.90;;;;;;4929129;29;20290;-66
2022/01/03 09:56:20;;;;;;;9.98;2.75;;;9.80;99.90;;;;;;4919644;29;20274;-66
2022/01/03 09:58:48;;;;;;;9.63;2.13;;;9.80;99.90;;;;;;4926862;29;20231;-66
2022/01/03 10:01:17;;;;;;;10.50;2.90;;;9.90;99.90;;;;;;4932101;29;20246;-63
2022/01/03 10:03:48;;;;;;;8.18;3.45;;;9.90;99.90;;;;;;4947493;28;20664;-63
2022/01/03 10:06:17;;;;;;;6.85;2.40;;;9.80;99.90;;;;;;4927313;29;20759;-64
2022/01/03 10:08:46;;;;;;;11.63;3.00;;;9.80;99.90;;;;;;4927426;29;20864;-64
2022/01/03 10:11:14;;;;;;;14.02;3.00;;;9.80;99.90;;;;;;4933016;29;20317;-64
2022/01/03 10:13:43;;;;;;;12.02;2.95;;;9.80;99.90;;;;;;4942204;29;20255;-65
2022/01/03 10:16:11;;;;;;;15.13;3.92;;;9.80;99.90;;;;;;4929202;29;20297;-64
2022/01/03 10:19:00;;;;;;;13.45;3.60;;;9.80;99.90;;;;;;4927647;29;20777;-64
2022/01/03 10:21:36;;;;;;;10.48;3.58;;;9.80;99.90;;;;;;4947164;28;20224;-64
2022/01/03 10:24:05;;;;;;;9.82;4.10;;;9.90;99.90;;;;;;4939593;29;20737;-64
2022/01/03 10:26:34;;;;;;;10.60;3.30;;;9.90;99.90;;;;;;4926563;29;20298;-64
2022/01/03 10:29:14;;;;;;;10.75;2.75;;;9.80;99.90;;;;;;4926917;29;20259;-64
2022/01/03 10:31:44;;;;;;;12.05;3.17;;;9.90;99.90;;;;;;4928937;29;20228;-64
2022/01/03 10:34:15;;;;;;;8.88;3.22;;;9.80;99.90;;;;;;4928133;29;20212;-64
2022/01/03 10:36:45;;;;;;;10.40;4.15;;;9.80;99.90;;;;;;4923564;29;20203;-64
2022/01/03 10:39:15;;;;;;;12.63;3.92;;;9.80;99.90;;;;;;4937957;29;20231;-64
2022/01/03 10:41:44;;;;;;;14.85;5.38;;;9.80;99.90;;;;;;4946871;28;20282;-64
2022/01/03 10:44:30;;;;;;;15.82;5.57;;;9.80;99.90;;;;;;4934038;29;20446;-63
2022/01/03 10:46:58;;;;;;;13.70;3.85;;;9.80;99.90;;;;;;4929156;29;20221;-64
2022/01/03 10:49:28;;;;;;;14.30;4.70;;;9.80;99.90;;;;;;4930118;29;20327;-64
2022/01/03 10:52:17;;;;;;;8.27;3.00;;;9.80;99.90;;;;;;4931515;29;20262;-64
2022/01/03 10:55:06;;;;;;;13.63;4.00;;;9.80;99.90;;;;;;4925138;29;20295;-64
2022/01/03 10:57:49;;;;;;;12.93;3.50;;;9.70;99.90;;;;;;4924505;29;20216;-64
2022/01/03 11:00:19;;;;;;;11.98;3.30;;;9.80;99.90;;;;;;4936516;29;20307;-64
2022/01/03 11:03:10;;;;;;;12.95;3.67;;;9.70;99.90;;;;;;4947584;29;20274;-64
2022/01/03 11:05:43;;;;;;;11.25;3.40;;;9.70;99.90;;;;;;4936292;28;20200;-65
2022/01/03 11:10:56;;;;;;;15.20;3.35;;;9.70;99.90;;;;;;4933160;29;20231;-64
2022/01/03 11:13:24;;;;;;;12.60;3.17;;;9.70;99.90;;;;;;4932015;29;20299;-65
2022/01/03 11:15:55;;;;;;;14.45;4.07;;;9.70;99.90;;;;;;4924922;29;20200;-64
2022/01/03 11:18:25;;;;;;;10.43;3.60;;;9.70;99.90;;;;;;4928698;29;20207;-64
2022/01/03 11:21:09;;;;;;;15.25;4.10;;;9.70;99.90;;;;;;4938746;28;20282;-64
2022/01/03 11:23:37;;;;;;;15.10;3.17;;;9.70;99.90;;;;;;4950175;29;20684;-64
2022/01/03 11:26:07;;;;;;;9.68;3.05;;;9.70;99.90;;;;;;4926597;29;20211;-64
2022/01/03 11:28:36;;;;;;;14.77;3.85;;;9.70;99.90;;;;;;4929661;29;20255;-64
2022/01/03 11:31:04;;;;;;;16.25;3.95;;;9.70;99.90;;;;;;4925866;29;20230;-65
2022/01/03 11:33:35;;;;;;;17.50;3.35;;;9.70;99.90;;;;;;4925411;29;20219;-64
2022/01/03 11:36:25;;;;;;;10.70;3.63;;;9.70;99.90;;;;;;4927224;29;20683;-64
2022/01/03 11:38:56;;;;;;;8.88;3.58;;;9.70;99.90;;;;;;4928874;29;20411;-64
2022/01/03 11:41:24;;;;;;;17.15;4.22;;;9.70;99.90;;;;;;4949767;28;20262;-64
2022/01/03 11:43:54;;;;;;;18.17;4.90;;;9.70;99.90;;;;;;4931427;29;20677;-64
2022/01/03 11:46:23;;;;;;;20.90;5.05;;;9.60;99.90;;;;;;4932362;29;20221;-64
2022/01/03 11:48:51;;;;;;;10.82;3.83;;;9.70;99.90;;;;;;4935816;29;20247;-64
2022/01/03 11:51:20;;;;;;;15.55;3.47;;;9.70;99.90;;;;;;4948213;28;20318;-64
2022/01/03 11:53:51;;;;;;;18.33;4.22;;;9.70;99.90;;;;;;4949103;29;20212;-63
2022/01/03 11:56:21;;;;;;;15.57;5.30;;;9.70;99.90;;;;;;4929304;29;20755;-63
2022/01/03 11:58:57;;;;;;;14.70;6.00;;;9.70;99.90;;;;;;4922918;29;20294;-64
2022/01/03 12:04:23;;;;;;;10.57;3.42;;;9.80;99.90;;;;;;4928960;29;20312;-65
2022/01/03 12:07:04;;;;;;;22.10;4.85;;;9.80;99.90;;;;;;4926306;29;20213;-65
2022/01/03 12:09:37;;;;;;;9.05;3.58;;;9.90;99.90;;;;;;4931580;29;20291;-65
2022/01/03 12:12:06;;;;;;;17.42;4.35;;;9.90;99.90;;;;;;4924632;29;20230;-65
2022/01/03 12:14:42;;;;;;;19.83;4.97;;;10.00;99.90;;;;;;4936039;29;20326;-63
2022/01/03 12:17:12;;;;;;;16.38;3.60;;;10.10;99.90;;;;;;4927082;29;20219;-64
2022/01/03 12:19:42;;;;;;;13.35;3.15;;;10.20;99.90;;;;;;4943719;29;20914;-64
2022/01/03 12:22:12;;;;;;;15.30;3.97;;;10.30;99.90;;;;;;4937437;28;20700;-64
2022/01/03 12:24:47;;;;;;;16.05;4.97;;;10.30;99.90;;;;;;4931270;29;20246;-64
2022/01/03 12:27:32;;;;;;;10.68;3.65;;;10.40;99.90;;;;;;4926670;29;20301;-64
2022/01/03 12:30:18;;;;;;;12.38;3.28;;;10.50;99.90;;;;;;4936489;29;20341;-64
2022/01/03 12:33:14;;;;;;;11.30;4.00;;;10.60;99.90;;;;;;4948860;28;20286;-63
2022/01/03 12:35:45;;;;;;;12.45;4.03;;;10.60;99.90;;;;;;4931263;28;20227;-64
2022/01/03 12:38:31;;;;;;;13.82;4.85;;;10.60;99.90;;;;;;4934644;29;20211;-64
2022/01/03 12:41:02;;;;;;;17.23;4.70;;;10.60;99.90;;;;;;4929922;29;20677;-64
2022/01/03 12:43:39;;;;;;;19.20;4.57;;;10.60;99.90;;;;;;4936052;29;20267;-65
2022/01/03 12:46:16;;;;;;;17.67;5.35;;;10.60;99.90;;;;;;4924167;29;20372;-64
2022/01/03 12:48:44;;;;;;;14.27;4.35;;;10.60;99.90;;;;;;4924023;29;20302;-64
2022/01/03 12:51:16;;;;;;;17.17;4.82;;;10.70;99.90;;;;;;4948045;28;20262;-64
2022/01/03 12:53:47;;;;;;;19.70;5.50;;;10.80;99.90;;;;;;4948801;29;20673;-64
2022/01/03 12:56:21;;;;;;;12.43;4.22;;;10.90;99.90;;;;;;4925693;29;20217;-64
2022/01/03 12:58:51;;;;;;;15.23;3.65;;;11.10;99.90;;;;;;4925472;29;20661;-64
2022/01/03 13:01:29;;;;;;;10.77;3.60;;;11.30;99.90;;;;;;4936314;29;20299;-64
2022/01/03 13:04:00;;;;;;;14.95;3.85;;;11.40;99.90;;;;;;4926303;29;20207;-65
2022/01/03 13:06:30;;;;;;;14.13;3.83;;;11.70;99.90;;;;;;4923512;29;20216;-65
2022/01/03 13:09:11;;;;;;;18.02;3.88;;;11.80;99.90;;;;;;4930041;29;20301;-64
2022/01/03 13:11:43;;;;;;;15.00;3.80;;;11.90;99.90;;;;;;4948896;28;20607;-64
2022/01/03 13:14:14;;;;;;;18.20;4.40;;;12.00;99.90;;;;;;4936188;29;20295;-65
2022/01/03 13:16:44;;;;;;;12.10;4.30;;;12.10;99.90;;;;;;4925435;29;20227;-64